sensor_id;sensor_type;location;lat;lon;timestamp;P1;durP1;ratioP1;P2;durP2;ratioP2
54665;SDS011;40566;50.006;36.180;2023-04-25T00:02:31;19.35;;;10.15;;
54665;SDS011;40566;50.006;36.180;2023-04-25T00:07:34;20.02;;;10.38;;
54665;SDS011;40566;50.006;36.180;2023-04-25T00:12:35;21.60;;;10.63;;
54665;SDS011;40566;50.006;36.180;2023-04-25T00:17:36;18.25;;;10.70;;
54665;SDS011;40566;50.006;36.180;2023-04-25T00:22:38;18.25;;;10.52;;
54665;SDS011;40566;50.006;36.180;2023-04-25T00:27:38;20.58;;;10.10;;
54665;SDS011;40566;50.006;36.180;2023-04-25T00:32:39;19.67;;;9.88;;
54665;SDS011;40566;50.006;36.180;2023-04-25T00:37:40;22.42;;;10.45;;
54665;SDS011;40566;50.006;36.180;2023-04-25T00:42:41;22.17;;;10.18;;
54665;SDS011;40566;50.006;36.180;2023-04-25T00:47:42;19.48;;;9.75;;
54665;SDS011;40566;50.006;36.180;2023-04-25T00:52:43;20.15;;;9.15;;
54665;SDS011;40566;50.006;36.180;2023-04-25T00:57:44;22.55;;;8.93;;
54665;SDS011;40566;50.006;36.180;2023-04-25T01:02:45;16.70;;;9.73;;
54665;SDS011;40566;50.006;36.180;2023-04-25T01:07:46;18.27;;;9.55;;
54665;SDS011;40566;50.006;36.180;2023-04-25T01:12:47;16.70;;;8.93;;
54665;SDS011;40566;50.006;36.180;2023-04-25T01:17:48;19.08;;;8.48;;
54665;SDS011;40566;50.006;36.180;2023-04-25T01:22:50;20.10;;;9.68;;
54665;SDS011;40566;50.006;36.180;2023-04-25T01:27:51;22.10;;;9.35;;
54665;SDS011;40566;50.006;36.180;2023-04-25T01:32:53;21.73;;;9.45;;
54665;SDS011;40566;50.006;36.180;2023-04-25T01:37:56;19.42;;;8.77;;
54665;SDS011;40566;50.006;36.180;2023-04-25T01:42:56;14.55;;;7.88;;
54665;SDS011;40566;50.006;36.180;2023-04-25T01:47:57;19.90;;;8.40;;
54665;SDS011;40566;50.006;36.180;2023-04-25T01:52:59;16.92;;;8.32;;
54665;SDS011;40566;50.006;36.180;2023-04-25T01:58:01;19.27;;;9.10;;
54665;SDS011;40566;50.006;36.180;2023-04-25T02:03:03;17.85;;;8.48;;
54665;SDS011;40566;50.006;36.180;2023-04-25T02:08:04;21.52;;;8.52;;
54665;SDS011;40566;50.006;36.180;2023-04-25T02:13:06;15.13;;;8.18;;
54665;SDS011;40566;50.006;36.180;2023-04-25T02:18:07;16.50;;;8.23;;
54665;SDS011;40566;50.006;36.180;2023-04-25T02:23:07;14.70;;;7.70;;
54665;SDS011;40566;50.006;36.180;2023-04-25T02:28:08;12.70;;;7.10;;
54665;SDS011;40566;50.006;36.180;2023-04-25T02:33:09;14.50;;;7.43;;
54665;SDS011;40566;50.006;36.180;2023-04-25T02:38:10;13.07;;;7.43;;
54665;SDS011;40566;50.006;36.180;2023-04-25T02:43:11;16.38;;;7.47;;
54665;SDS011;40566;50.006;36.180;2023-04-25T02:48:11;12.45;;;6.70;;
54665;SDS011;40566;50.006;36.180;2023-04-25T02:53:12;14.43;;;7.53;;
54665;SDS011;40566;50.006;36.180;2023-04-25T02:58:12;14.93;;;7.45;;
54665;SDS011;40566;50.006;36.180;2023-04-25T03:03:19;16.65;;;7.53;;
54665;SDS011;40566;50.006;36.180;2023-04-25T03:08:25;16.73;;;7.70;;
54665;SDS011;40566;50.006;36.180;2023-04-25T03:13:29;15.35;;;7.45;;
54665;SDS011;40566;50.006;36.180;2023-04-25T03:18:30;15.98;;;7.38;;
54665;SDS011;40566;50.006;36.180;2023-04-25T03:23:30;15.43;;;7.45;;
54665;SDS011;40566;50.006;36.180;2023-04-25T03:28:31;14.95;;;7.45;;
54665;SDS011;40566;50.006;36.180;2023-04-25T03:33:31;14.63;;;7.30;;
54665;SDS011;40566;50.006;36.180;2023-04-25T03:38:32;15.20;;;7.68;;
54665;SDS011;40566;50.006;36.180;2023-04-25T03:43:33;14.00;;;6.80;;
54665;SDS011;40566;50.006;36.180;2023-04-25T03:48:33;12.20;;;7.03;;
54665;SDS011;40566;50.006;36.180;2023-04-25T03:53:34;12.90;;;7.32;;
54665;SDS011;40566;50.006;36.180;2023-04-25T03:58:34;17.02;;;9.30;;
54665;SDS011;40566;50.006;36.180;2023-04-25T04:03:35;24.38;;;10.02;;
54665;SDS011;40566;50.006;36.180;2023-04-25T04:08:36;22.67;;;11.70;;
54665;SDS011;40566;50.006;36.180;2023-04-25T04:13:36;25.30;;;11.35;;
54665;SDS011;40566;50.006;36.180;2023-04-25T04:18:37;28.42;;;11.80;;
54665;SDS011;40566;50.006;36.180;2023-04-25T04:23:37;23.88;;;10.73;;
54665;SDS011;40566;50.006;36.180;2023-04-25T04:28:38;74.43;;;44.72;;
54665;SDS011;40566;50.006;36.180;2023-04-25T04:33:39;41.38;;;24.45;;
54665;SDS011;40566;50.006;36.180;2023-04-25T04:38:39;23.55;;;11.82;;
54665;SDS011;40566;50.006;36.180;2023-04-25T04:43:41;24.85;;;12.18;;
54665;SDS011;40566;50.006;36.180;2023-04-25T04:48:42;19.73;;;9.70;;
54665;SDS011;40566;50.006;36.180;2023-04-25T04:53:42;17.48;;;8.80;;
54665;SDS011;40566;50.006;36.180;2023-04-25T04:58:43;17.20;;;8.65;;
54665;SDS011;40566;50.006;36.180;2023-04-25T05:03:44;15.68;;;8.82;;
54665;SDS011;40566;50.006;36.180;2023-04-25T05:08:45;18.40;;;8.32;;
54665;SDS011;40566;50.006;36.180;2023-04-25T05:13:46;16.88;;;7.88;;
54665;SDS011;40566;50.006;36.180;2023-04-25T05:18:46;15.45;;;8.18;;
54665;SDS011;40566;50.006;36.180;2023-04-25T05:23:47;19.98;;;8.60;;
54665;SDS011;40566;50.006;36.180;2023-04-25T05:28:48;22.27;;;9.00;;
54665;SDS011;40566;50.006;36.180;2023-04-25T05:33:48;17.05;;;8.70;;
54665;SDS011;40566;50.006;36.180;2023-04-25T05:38:49;13.18;;;7.40;;
54665;SDS011;40566;50.006;36.180;2023-04-25T05:43:49;35.33;;;10.25;;
54665;SDS011;40566;50.006;36.180;2023-04-25T05:48:50;16.63;;;9.82;;
54665;SDS011;40566;50.006;36.180;2023-04-25T05:53:51;20.60;;;11.63;;
54665;SDS011;40566;50.006;36.180;2023-04-25T05:58:51;23.95;;;11.10;;
54665;SDS011;40566;50.006;36.180;2023-04-25T06:03:52;19.70;;;12.88;;
54665;SDS011;40566;50.006;36.180;2023-04-25T06:08:52;28.55;;;12.52;;
54665;SDS011;40566;50.006;36.180;2023-04-25T06:13:53;18.88;;;11.98;;
54665;SDS011;40566;50.006;36.180;2023-04-25T06:18:54;28.15;;;14.48;;
54665;SDS011;40566;50.006;36.180;2023-04-25T06:23:55;27.88;;;14.38;;
54665;SDS011;40566;50.006;36.180;2023-04-25T06:28:55;24.02;;;11.82;;
54665;SDS011;40566;50.006;36.180;2023-04-25T06:33:56;15.05;;;7.55;;
54665;SDS011;40566;50.006;36.180;2023-04-25T06:38:57;14.23;;;7.72;;
54665;SDS011;40566;50.006;36.180;2023-04-25T06:43:57;11.48;;;6.50;;
54665;SDS011;40566;50.006;36.180;2023-04-25T06:48:58;11.07;;;5.75;;
54665;SDS011;40566;50.006;36.180;2023-04-25T06:53:58;9.40;;;5.47;;
54665;SDS011;40566;50.006;36.180;2023-04-25T06:59:00;12.23;;;6.13;;
54665;SDS011;40566;50.006;36.180;2023-04-25T07:04:00;12.15;;;5.40;;
54665;SDS011;40566;50.006;36.180;2023-04-25T07:09:01;10.50;;;5.30;;
54665;SDS011;40566;50.006;36.180;2023-04-25T07:14:02;13.63;;;6.47;;
54665;SDS011;40566;50.006;36.180;2023-04-25T07:19:03;13.30;;;6.13;;
54665;SDS011;40566;50.006;36.180;2023-04-25T07:24:04;12.05;;;6.10;;
54665;SDS011;40566;50.006;36.180;2023-04-25T07:29:04;11.70;;;6.07;;
54665;SDS011;40566;50.006;36.180;2023-04-25T07:34:05;10.45;;;5.57;;
54665;SDS011;40566;50.006;36.180;2023-04-25T07:39:06;8.93;;;3.63;;
54665;SDS011;40566;50.006;36.180;2023-04-25T07:44:06;10.35;;;4.55;;
54665;SDS011;40566;50.006;36.180;2023-04-25T07:49:07;10.07;;;4.38;;
54665;SDS011;40566;50.006;36.180;2023-04-25T07:54:07;6.85;;;3.17;;
54665;SDS011;40566;50.006;36.180;2023-04-25T07:59:08;10.27;;;3.67;;
54665;SDS011;40566;50.006;36.180;2023-04-25T08:04:09;8.38;;;3.60;;
54665;SDS011;40566;50.006;36.180;2023-04-25T08:09:09;7.80;;;2.25;;
54665;SDS011;40566;50.006;36.180;2023-04-25T08:14:11;6.80;;;2.90;;
54665;SDS011;40566;50.006;36.180;2023-04-25T08:19:12;5.30;;;2.40;;
54665;SDS011;40566;50.006;36.180;2023-04-25T08:24:12;3.55;;;1.70;;
54665;SDS011;40566;50.006;36.180;2023-04-25T08:29:13;4.22;;;2.20;;
54665;SDS011;40566;50.006;36.180;2023-04-25T08:34:13;6.93;;;2.78;;
54665;SDS011;40566;50.006;36.180;2023-04-25T08:39:14;5.97;;;1.73;;
54665;SDS011;40566;50.006;36.180;2023-04-25T08:44:14;2.83;;;1.48;;
54665;SDS011;40566;50.006;36.180;2023-04-25T08:49:17;4.90;;;1.88;;
54665;SDS011;40566;50.006;36.180;2023-04-25T08:54:19;3.33;;;1.50;;
54665;SDS011;40566;50.006;36.180;2023-04-25T08:59:23;4.07;;;1.30;;
54665;SDS011;40566;50.006;36.180;2023-04-25T09:04:24;1.95;;;1.05;;
54665;SDS011;40566;50.006;36.180;2023-04-25T09:09:25;2.00;;;1.17;;
54665;SDS011;40566;50.006;36.180;2023-04-25T09:14:25;2.80;;;1.50;;
54665;SDS011;40566;50.006;36.180;2023-04-25T09:19:32;3.38;;;1.20;;
54665;SDS011;40566;50.006;36.180;2023-04-25T09:29:39;2.13;;;1.00;;
54665;SDS011;40566;50.006;36.180;2023-04-25T09:34:41;2.60;;;0.95;;
54665;SDS011;40566;50.006;36.180;2023-04-25T09:39:47;2.70;;;0.98;;
54665;SDS011;40566;50.006;36.180;2023-04-25T09:44:49;2.15;;;1.08;;
54665;SDS011;40566;50.006;36.180;2023-04-25T09:49:52;7.28;;;1.85;;
54665;SDS011;40566;50.006;36.180;2023-04-25T09:54:54;1.63;;;1.00;;
54665;SDS011;40566;50.006;36.180;2023-04-25T09:59:57;1.73;;;1.13;;
54665;SDS011;40566;50.006;36.180;2023-04-25T10:05:00;2.70;;;1.20;;
54665;SDS011;40566;50.006;36.180;2023-04-25T10:10:04;3.72;;;1.10;;
54665;SDS011;40566;50.006;36.180;2023-04-25T10:15:06;2.13;;;1.10;;
54665;SDS011;40566;50.006;36.180;2023-04-25T10:20:09;4.53;;;1.40;;
54665;SDS011;40566;50.006;36.180;2023-04-25T10:25:11;1.55;;;0.90;;
54665;SDS011;40566;50.006;36.180;2023-04-25T10:30:13;2.95;;;1.30;;
54665;SDS011;40566;50.006;36.180;2023-04-25T10:35:17;1.48;;;0.90;;
54665;SDS011;40566;50.006;36.180;2023-04-25T10:45:24;2.33;;;1.25;;
54665;SDS011;40566;50.006;36.180;2023-04-25T10:50:26;3.15;;;1.20;;
54665;SDS011;40566;50.006;36.180;2023-04-25T10:55:50;2.05;;;1.08;;
54665;SDS011;40566;50.006;36.180;2023-04-25T11:00:51;3.38;;;1.35;;
54665;SDS011;40566;50.006;36.180;2023-04-25T11:05:52;2.97;;;1.33;;
54665;SDS011;40566;50.006;36.180;2023-04-25T11:10:53;3.65;;;1.10;;
54665;SDS011;40566;50.006;36.180;2023-04-25T11:15:55;2.65;;;1.30;;
54665;SDS011;40566;50.006;36.180;2023-04-25T11:20:55;2.25;;;1.23;;
54665;SDS011;40566;50.006;36.180;2023-04-25T11:25:57;2.85;;;1.23;;
54665;SDS011;40566;50.006;36.180;2023-04-25T11:30:57;2.75;;;1.42;;
54665;SDS011;40566;50.006;36.180;2023-04-25T11:35:58;3.55;;;1.20;;
54665;SDS011;40566;50.006;36.180;2023-04-25T11:40:59;3.28;;;1.23;;
54665;SDS011;40566;50.006;36.180;2023-04-25T11:45:59;2.35;;;0.93;;
54665;SDS011;40566;50.006;36.180;2023-04-25T11:51:00;2.25;;;1.02;;
54665;SDS011;40566;50.006;36.180;2023-04-25T11:56:01;4.97;;;1.00;;
54665;SDS011;40566;50.006;36.180;2023-04-25T12:01:02;12.52;;;6.53;;
54665;SDS011;40566;50.006;36.180;2023-04-25T12:06:03;10.05;;;4.80;;
54665;SDS011;40566;50.006;36.180;2023-04-25T12:11:04;4.20;;;1.30;;
54665;SDS011;40566;50.006;36.180;2023-04-25T12:16:05;13.20;;;7.18;;
54665;SDS011;40566;50.006;36.180;2023-04-25T12:21:06;5.65;;;2.03;;
54665;SDS011;40566;50.006;36.180;2023-04-25T12:26:07;4.03;;;1.77;;
54665;SDS011;40566;50.006;36.180;2023-04-25T12:31:07;2.13;;;0.90;;
54665;SDS011;40566;50.006;36.180;2023-04-25T12:36:08;3.67;;;1.23;;
54665;SDS011;40566;50.006;36.180;2023-04-25T12:41:10;2.40;;;1.25;;
54665;SDS011;40566;50.006;36.180;2023-04-25T12:46:11;1.95;;;0.80;;
54665;SDS011;40566;50.006;36.180;2023-04-25T12:51:11;3.30;;;1.25;;
54665;SDS011;40566;50.006;36.180;2023-04-25T12:56:12;1.48;;;0.90;;
54665;SDS011;40566;50.006;36.180;2023-04-25T13:01:13;2.15;;;0.82;;
54665;SDS011;40566;50.006;36.180;2023-04-25T13:06:15;1.80;;;0.98;;
54665;SDS011;40566;50.006;36.180;2023-04-25T13:11:17;2.40;;;0.95;;
54665;SDS011;40566;50.006;36.180;2023-04-25T13:16:17;2.45;;;1.30;;
54665;SDS011;40566;50.006;36.180;2023-04-25T13:21:20;2.53;;;1.50;;
54665;SDS011;40566;50.006;36.180;2023-04-25T13:26:21;1.88;;;1.00;;
54665;SDS011;40566;50.006;36.180;2023-04-25T13:31:21;2.70;;;1.25;;
54665;SDS011;40566;50.006;36.180;2023-04-25T13:36:22;13.90;;;5.65;;
54665;SDS011;40566;50.006;36.180;2023-04-25T13:41:23;3.45;;;1.10;;
54665;SDS011;40566;50.006;36.180;2023-04-25T13:46:23;2.58;;;1.00;;
54665;SDS011;40566;50.006;36.180;2023-04-25T13:51:24;4.30;;;1.35;;
54665;SDS011;40566;50.006;36.180;2023-04-25T13:56:26;5.32;;;1.52;;
54665;SDS011;40566;50.006;36.180;2023-04-25T14:01:27;15.50;;;5.70;;
54665;SDS011;40566;50.006;36.180;2023-04-25T14:06:28;6.53;;;2.50;;
54665;SDS011;40566;50.006;36.180;2023-04-25T14:11:28;2.25;;;0.98;;
54665;SDS011;40566;50.006;36.180;2023-04-25T14:16:29;2.70;;;1.10;;
54665;SDS011;40566;50.006;36.180;2023-04-25T14:21:31;4.57;;;0.98;;
54665;SDS011;40566;50.006;36.180;2023-04-25T14:26:35;3.42;;;1.10;;
54665;SDS011;40566;50.006;36.180;2023-04-25T14:31:37;6.03;;;1.55;;
54665;SDS011;40566;50.006;36.180;2023-04-25T14:36:39;3.88;;;1.15;;
54665;SDS011;40566;50.006;36.180;2023-04-25T14:41:40;4.55;;;1.40;;
54665;SDS011;40566;50.006;36.180;2023-04-25T14:46:40;2.08;;;1.17;;
54665;SDS011;40566;50.006;36.180;2023-04-25T14:51:41;3.38;;;1.20;;
54665;SDS011;40566;50.006;36.180;2023-04-25T14:56:41;3.50;;;1.42;;
54665;SDS011;40566;50.006;36.180;2023-04-25T15:01:42;2.97;;;1.20;;
54665;SDS011;40566;50.006;36.180;2023-04-25T15:06:43;10.75;;;3.20;;
54665;SDS011;40566;50.006;36.180;2023-04-25T15:11:43;4.35;;;1.58;;
54665;SDS011;40566;50.006;36.180;2023-04-25T15:16:44;4.80;;;1.80;;
54665;SDS011;40566;50.006;36.180;2023-04-25T15:21:44;3.28;;;1.55;;
54665;SDS011;40566;50.006;36.180;2023-04-25T15:26:45;6.40;;;1.95;;
54665;SDS011;40566;50.006;36.180;2023-04-25T15:31:46;8.13;;;1.52;;
54665;SDS011;40566;50.006;36.180;2023-04-25T15:36:46;5.80;;;1.23;;
54665;SDS011;40566;50.006;36.180;2023-04-25T15:41:47;6.90;;;1.52;;
54665;SDS011;40566;50.006;36.180;2023-04-25T15:46:48;3.92;;;1.35;;
54665;SDS011;40566;50.006;36.180;2023-04-25T15:51:49;4.13;;;1.70;;
54665;SDS011;40566;50.006;36.180;2023-04-25T15:56:50;3.83;;;1.80;;
54665;SDS011;40566;50.006;36.180;2023-04-25T16:01:51;3.35;;;1.80;;
54665;SDS011;40566;50.006;36.180;2023-04-25T16:06:51;6.68;;;1.83;;
54665;SDS011;40566;50.006;36.180;2023-04-25T16:11:52;6.30;;;1.70;;
54665;SDS011;40566;50.006;36.180;2023-04-25T16:16:52;6.32;;;2.20;;
54665;SDS011;40566;50.006;36.180;2023-04-25T16:21:53;5.03;;;1.90;;
54665;SDS011;40566;50.006;36.180;2023-04-25T16:26:54;7.07;;;3.30;;
54665;SDS011;40566;50.006;36.180;2023-04-25T16:31:54;13.68;;;5.20;;
54665;SDS011;40566;50.006;36.180;2023-04-25T16:36:55;29.25;;;12.38;;
54665;SDS011;40566;50.006;36.180;2023-04-25T16:41:56;55.55;;;20.80;;
54665;SDS011;40566;50.006;36.180;2023-04-25T16:46:57;9.23;;;4.40;;
54665;SDS011;40566;50.006;36.180;2023-04-25T16:51:58;10.77;;;3.70;;
54665;SDS011;40566;50.006;36.180;2023-04-25T16:56:58;8.73;;;3.75;;
54665;SDS011;40566;50.006;36.180;2023-04-25T17:01:59;7.47;;;3.67;;
54665;SDS011;40566;50.006;36.180;2023-04-25T17:07:01;9.00;;;3.85;;
54665;SDS011;40566;50.006;36.180;2023-04-25T17:12:02;9.77;;;4.20;;
54665;SDS011;40566;50.006;36.180;2023-04-25T17:17:03;11.23;;;4.28;;
54665;SDS011;40566;50.006;36.180;2023-04-25T17:22:03;11.25;;;4.93;;
54665;SDS011;40566;50.006;36.180;2023-04-25T17:27:04;6.90;;;3.70;;
54665;SDS011;40566;50.006;36.180;2023-04-25T17:32:05;9.05;;;3.67;;
54665;SDS011;40566;50.006;36.180;2023-04-25T17:37:05;8.82;;;4.05;;
54665;SDS011;40566;50.006;36.180;2023-04-25T17:42:09;24.52;;;10.90;;
54665;SDS011;40566;50.006;36.180;2023-04-25T17:47:11;11.10;;;4.53;;
54665;SDS011;40566;50.006;36.180;2023-04-25T17:52:11;9.27;;;4.90;;
54665;SDS011;40566;50.006;36.180;2023-04-25T17:57:12;14.38;;;5.90;;
54665;SDS011;40566;50.006;36.180;2023-04-25T18:02:13;15.30;;;6.32;;
54665;SDS011;40566;50.006;36.180;2023-04-25T18:07:16;12.40;;;6.38;;
54665;SDS011;40566;50.006;36.180;2023-04-25T18:12:17;26.00;;;12.32;;
54665;SDS011;40566;50.006;36.180;2023-04-25T18:17:17;32.80;;;14.52;;
54665;SDS011;40566;50.006;36.180;2023-04-25T18:22:19;31.58;;;14.63;;
54665;SDS011;40566;50.006;36.180;2023-04-25T18:27:19;23.50;;;11.65;;
54665;SDS011;40566;50.006;36.180;2023-04-25T18:32:20;31.75;;;15.00;;
54665;SDS011;40566;50.006;36.180;2023-04-25T18:37:21;25.48;;;11.45;;
54665;SDS011;40566;50.006;36.180;2023-04-25T18:42:21;46.10;;;18.45;;
54665;SDS011;40566;50.006;36.180;2023-04-25T18:47:24;18.92;;;9.48;;
54665;SDS011;40566;50.006;36.180;2023-04-25T18:52:25;17.85;;;8.63;;
54665;SDS011;40566;50.006;36.180;2023-04-25T18:57:26;20.27;;;8.40;;
54665;SDS011;40566;50.006;36.180;2023-04-25T19:02:26;17.33;;;9.65;;
54665;SDS011;40566;50.006;36.180;2023-04-25T19:07:27;17.55;;;9.10;;
54665;SDS011;40566;50.006;36.180;2023-04-25T19:12:30;13.93;;;8.30;;
54665;SDS011;40566;50.006;36.180;2023-04-25T19:17:32;13.00;;;6.85;;
54665;SDS011;40566;50.006;36.180;2023-04-25T19:22:33;12.95;;;7.70;;
54665;SDS011;40566;50.006;36.180;2023-04-25T19:27:34;12.00;;;7.40;;
54665;SDS011;40566;50.006;36.180;2023-04-25T19:32:35;10.90;;;6.65;;
54665;SDS011;40566;50.006;36.180;2023-04-25T19:37:36;13.75;;;7.88;;
54665;SDS011;40566;50.006;36.180;2023-04-25T19:42:37;12.77;;;7.78;;
54665;SDS011;40566;50.006;36.180;2023-04-25T19:47:37;13.57;;;7.60;;
54665;SDS011;40566;50.006;36.180;2023-04-25T19:52:38;16.85;;;8.23;;
54665;SDS011;40566;50.006;36.180;2023-04-25T19:57:39;17.90;;;8.88;;
54665;SDS011;40566;50.006;36.180;2023-04-25T20:02:40;16.92;;;8.23;;
54665;SDS011;40566;50.006;36.180;2023-04-25T20:07:44;16.10;;;8.68;;
54665;SDS011;40566;50.006;36.180;2023-04-25T20:12:44;19.25;;;9.43;;
54665;SDS011;40566;50.006;36.180;2023-04-25T20:17:45;21.33;;;9.43;;
54665;SDS011;40566;50.006;36.180;2023-04-25T20:22:46;21.52;;;11.90;;
54665;SDS011;40566;50.006;36.180;2023-04-25T20:27:46;23.95;;;11.45;;
54665;SDS011;40566;50.006;36.180;2023-04-25T20:32:47;20.05;;;10.35;;
54665;SDS011;40566;50.006;36.180;2023-04-25T20:37:49;17.55;;;9.30;;
54665;SDS011;40566;50.006;36.180;2023-04-25T20:42:50;14.95;;;9.63;;
54665;SDS011;40566;50.006;36.180;2023-04-25T20:47:51;18.15;;;10.18;;
54665;SDS011;40566;50.006;36.180;2023-04-25T20:52:52;19.25;;;9.82;;
54665;SDS011;40566;50.006;36.180;2023-04-25T20:57:52;19.80;;;11.40;;
54665;SDS011;40566;50.006;36.180;2023-04-25T21:02:56;21.75;;;10.82;;
54665;SDS011;40566;50.006;36.180;2023-04-25T21:07:57;19.95;;;11.20;;
54665;SDS011;40566;50.006;36.180;2023-04-25T21:12:57;21.65;;;11.40;;
54665;SDS011;40566;50.006;36.180;2023-04-25T21:17:58;19.17;;;11.80;;
54665;SDS011;40566;50.006;36.180;2023-04-25T21:22:59;16.83;;;10.15;;
54665;SDS011;40566;50.006;36.180;2023-04-25T21:27:59;20.23;;;10.48;;
54665;SDS011;40566;50.006;36.180;2023-04-25T21:33:01;18.58;;;9.88;;
54665;SDS011;40566;50.006;36.180;2023-04-25T21:38:02;18.20;;;10.45;;
54665;SDS011;40566;50.006;36.180;2023-04-25T21:43:03;18.80;;;10.30;;
54665;SDS011;40566;50.006;36.180;2023-04-25T21:48:05;19.20;;;10.30;;
54665;SDS011;40566;50.006;36.180;2023-04-25T21:53:06;17.55;;;9.35;;
54665;SDS011;40566;50.006;36.180;2023-04-25T21:58:07;19.90;;;9.65;;
54665;SDS011;40566;50.006;36.180;2023-04-25T22:03:08;19.83;;;9.07;;
54665;SDS011;40566;50.006;36.180;2023-04-25T22:08:08;17.17;;;8.98;;
54665;SDS011;40566;50.006;36.180;2023-04-25T22:13:09;16.63;;;9.85;;
54665;SDS011;40566;50.006;36.180;2023-04-25T22:18:10;20.25;;;9.80;;
54665;SDS011;40566;50.006;36.180;2023-04-25T22:23:12;17.30;;;10.45;;
54665;SDS011;40566;50.006;36.180;2023-04-25T22:28:13;19.95;;;9.90;;
54665;SDS011;40566;50.006;36.180;2023-04-25T22:33:14;23.33;;;10.82;;
54665;SDS011;40566;50.006;36.180;2023-04-25T22:38:14;20.63;;;10.82;;
54665;SDS011;40566;50.006;36.180;2023-04-25T22:43:15;19.08;;;10.55;;
54665;SDS011;40566;50.006;36.180;2023-04-25T22:48:16;18.73;;;10.52;;
54665;SDS011;40566;50.006;36.180;2023-04-25T22:53:16;17.63;;;9.73;;
54665;SDS011;40566;50.006;36.180;2023-04-25T22:58:17;14.88;;;9.15;;
54665;SDS011;40566;50.006;36.180;2023-04-25T23:03:18;14.38;;;9.40;;
54665;SDS011;40566;50.006;36.180;2023-04-25T23:08:19;15.75;;;9.60;;
54665;SDS011;40566;50.006;36.180;2023-04-25T23:13:20;17.05;;;9.65;;
54665;SDS011;40566;50.006;36.180;2023-04-25T23:18:21;22.05;;;10.25;;
54665;SDS011;40566;50.006;36.180;2023-04-25T23:23:21;24.05;;;10.18;;
54665;SDS011;40566;50.006;36.180;2023-04-25T23:28:22;17.52;;;10.20;;
54665;SDS011;40566;50.006;36.180;2023-04-25T23:33:23;29.38;;;12.52;;
54665;SDS011;40566;50.006;36.180;2023-04-25T23:38:24;26.05;;;12.00;;
54665;SDS011;40566;50.006;36.180;2023-04-25T23:43:25;16.90;;;10.07;;
54665;SDS011;40566;50.006;36.180;2023-04-25T23:48:25;15.00;;;9.18;;
54665;SDS011;40566;50.006;36.180;2023-04-25T23:53:26;16.30;;;9.07;;
54665;SDS011;40566;50.006;36.180;2023-04-25T23:58:26;14.68;;;9.10;;
